• Join FlightAware (Why Join?)
  • Login
  • US Flag 
05:24PM EDT


 

Airport Tracker/Info


-or-


 

Live Flight TrackerFlight Track Log ✈ ACA1119 ✈ 14-May-2012 ✈ CYYZ - CYQR

Flight Track Log - Related Links

Times and Time Zones

All times are in EDT time to prevent confusion due to time zone crossing. See the ACA1119 flight status page for this flight to view local times or setup timezone preferences in your user account.

Time Position Orientation Groundspeed Altitude Reporting Facility
EDT Latitude Longitude Course Direction KTS MPH feet Rate Location/Type
09:53PM 43.7632 -79.8120 141° Southeast  Level FlightAware Approximate
09:53PM 43.6500 -79.6833 306° West 150 173 2,500  Level Toronto Center
09:58PM 43.8333 -80.0333 313° West 330 380 13,300 1,860 Climbing Toronto Center
10:05PM 44.3333 -80.8000 310° West 400 460 25,000 1,380 Climbing Toronto Center
10:10PM 44.7000 -81.4167 313° West 410 472 30,000 780 Climbing Toronto Center
10:11PM 44.7667 -81.5167 311° West 410 472 30,000  Level Toronto Center
10:12PM 44.8500 -81.6500 313° West 410 472 30,000  Level Toronto Center
10:13PM 44.9167 -81.7500 308° West 410 472 30,000  Level Toronto Center
10:14PM 45.0000 -81.9000 305° West 400 460 30,000  Level Toronto Center
10:15PM 45.0500 -82.0000 312° West 400 460 30,000  Level Toronto Center
10:16PM 45.1333 -82.1333 313° West 400 460 30,000  Level Toronto Center
10:17PM 45.2000 -82.2333 315° West 400 460 30,000  Level Toronto Center
10:18PM 45.2833 -82.3500 305° West 400 460 30,000  Level Toronto Center
10:19PM 45.3500 -82.4833 316° Northwest 400 460 30,000  Level Toronto Center
10:20PM 45.4333 -82.6000 301° West 400 460 30,000  Level Toronto Center
10:21PM 45.4833 -82.7167 312° West 400 460 30,000  Level Toronto Center
10:22PM 45.5667 -82.8500 309° West 400 460 30,000  Level Toronto Center
10:23PM 45.6333 -82.9667 306° West 390 449 30,000  Level Toronto Center
10:24PM 45.7000 -83.1000 316° Northwest 400 460 30,000  Level Toronto Center
10:25PM 45.7833 -83.2167 306° West 400 460 30,000  Level Toronto Center
10:26PM 45.8333 -83.3167 312° West 390 449 30,000  Level Toronto Center
10:27PM 45.9167 -83.4500 309° West 390 449 30,000  Level Toronto Center
10:28PM 45.9833 -83.5667 308° West 390 449 30,000  Level Toronto Center
10:30PM 46.1167 -83.8167 314° West 390 449 30,000  Level Toronto Center
10:31PM 46.1833 -83.9167 312° West 390 449 30,000  Level Toronto Center
10:32PM 46.2667 -84.0500 310° West 390 449 30,000  Level Toronto Center
10:33PM 46.3333 -84.1667 299° West 390 449 30,000  Level Toronto Center
10:34PM 46.3833 -84.3000 310° West 390 449 30,000  Level Toronto Center
10:35PM 46.4500 -84.4167 299° West 390 449 30,000  Level Toronto Center
10:36PM 46.5000 -84.5500 296° West 390 449 30,000  Level Toronto Center
10:37PM 46.5500 -84.7000 299° West 380 437 30,000  Level Toronto Center
10:38PM 46.6000 -84.8333 303° West 380 437 30,000  Level Toronto Center
10:39PM 46.6667 -84.9833 293° West 380 437 30,000  Level Toronto Center
10:40PM 46.7000 -85.1000 306° West 380 437 30,000  Level Toronto Center
10:41PM 46.7333 -85.1667 306° West 390 449 30,000  Level Winnipeg Center
10:42PM 46.8000 -85.3000 296° West 390 449 30,000  Level Winnipeg Center
10:43PM 46.8500 -85.4500 299° West 390 449 30,000  Level Winnipeg Center
10:44PM 46.9000 -85.5833 290° West 390 449 30,000  Level Winnipeg Center
10:45PM 46.9333 -85.7167 299° West 390 449 30,000  Level Winnipeg Center
10:46PM 46.9833 -85.8500 306° West 380 437 30,000  Level Winnipeg Center
10:47PM 47.0500 -85.9833 296° West 380 437 30,000  Level Winnipeg Center
10:48PM 47.1000 -86.1333 299° West 380 437 30,000  Level Winnipeg Center
10:49PM 47.1500 -86.2667 299° West 380 437 30,000  Level Winnipeg Center
10:50PM 47.2000 -86.4000 299° West 380 437 30,000  Level Winnipeg Center
10:51PM 47.2500 -86.5333 288° West 380 437 30,000  Level Winnipeg Center
10:52PM 47.2833 -86.6833 306° West 380 437 30,000  Level Winnipeg Center
10:53PM 47.3500 -86.8167 299° West 370 426 30,000  Level Winnipeg Center
10:54PM 47.4000 -86.9500 302° West 370 426 30,000  Level Winnipeg Center
10:55PM 47.4500 -87.0667 288° West 370 426 30,000  Level Winnipeg Center
10:56PM 47.4833 -87.2167 299° West 370 426 30,000  Level Winnipeg Center
10:57PM 47.5333 -87.3500 299° West 370 426 30,000  Level Winnipeg Center
10:58PM 47.5833 -87.4833 303° West 370 426 30,000  Level Winnipeg Center
10:59PM 47.6500 -87.6333 293° West 370 426 30,000  Level Winnipeg Center
11:00PM 47.6833 -87.7500 299° West 370 426 30,000  Level Winnipeg Center
11:01PM 47.7333 -87.8833 296° West 370 426 30,000  Level Winnipeg Center
11:02PM 47.7833 -88.0333 293° West 370 426 30,000  Level Winnipeg Center
11:03PM 47.8167 -88.1500 299° West 370 426 30,000  Level Winnipeg Center
11:04PM 47.8667 -88.2833 296° West 370 426 30,000  Level Winnipeg Center
11:05PM 47.9167 -88.4333 291° West 370 426 30,000  Level Winnipeg Center
11:06PM 47.9500 -88.5667 297° West 370 426 30,000  Level Winnipeg Center
11:07PM 48.0000 -88.7167 293° West 370 426 30,000  Level Winnipeg Center
11:08PM 48.0333 -88.8333 307° West 370 426 30,000  Level Winnipeg Center
11:09PM 48.1000 -88.9667 297° West 370 426 30,000  Level Winnipeg Center
11:10PM 48.1500 -89.1167 288° West 370 426 30,000  Level Winnipeg Center
11:11PM 48.1833 -89.2667 303° West 360 414 30,000  Level Winnipeg Center
11:12PM 48.2333 -89.3833 289° West 360 414 30,000  Level Winnipeg Center
11:13PM 48.2667 -89.5333 299° West 360 414 30,000  Level Winnipeg Center
11:14PM 48.3167 -89.6667 291° West 360 414 30,000  Level Winnipeg Center
11:15PM 48.3500 -89.8000 291° West 360 414 30,000  Level Winnipeg Center
11:16PM 48.3833 -89.9333 297° West 370 426 30,000  Level Winnipeg Center
11:17PM 48.4333 -90.0833 289° West 370 426 30,000  Level Winnipeg Center
11:18PM 48.4667 -90.2333 300° West 370 426 30,000  Level Winnipeg Center
11:19PM 48.5167 -90.3667 291° West 370 426 30,000  Level Winnipeg Center
11:20PM 48.5500 -90.5000 297° West 370 426 30,000  Level Winnipeg Center
11:21PM 48.6000 -90.6500 281° West 360 414 30,000  Level Winnipeg Center
11:22PM 48.6167 -90.7833 297° West 360 414 30,000  Level Winnipeg Center
11:23PM 48.6667 -90.9333 289° West 360 414 30,000  Level Winnipeg Center
11:24PM 48.7000 -91.0833 303° West 370 426 30,000  Level Winnipeg Center
11:25PM 48.7500 -91.2000 285° West 370 426 30,000  Level Winnipeg Center
11:26PM 48.7833 -91.3833 303° West 370 426 30,000  Level Winnipeg Center
11:27PM 48.8333 -91.5000 289° West 360 414 30,000  Level Winnipeg Center
11:28PM 48.8667 -91.6500 289° West 360 414 30,000  Level Winnipeg Center
11:29PM 48.9000 -91.8000 294° West 370 426 30,000  Level Winnipeg Center
11:30PM 48.9333 -91.9167 286° West 370 426 30,000  Level Winnipeg Center
11:31PM 48.9667 -92.1000 303° West 370 426 30,000  Level Winnipeg Center
11:32PM 49.0167 -92.2167 289° West 370 426 30,000  Level Winnipeg Center
11:33PM 49.0500 -92.3667 289° West 370 426 30,000  Level Winnipeg Center
11:34PM 49.0833 -92.5167 297° West 370 426 30,000 480 Level Winnipeg Center
11:35PM 49.1333 -92.6667 291° West 360 414 31,000 480 Climbing Winnipeg Center
11:36PM 49.1667 -92.8000 280° West 340 391 31,000  Level Winnipeg Center
11:37PM 49.1833 -92.9500 303° West 340 391 31,000  Level Winnipeg Center
11:38PM 49.2333 -93.0667 291° West 340 391 31,000  Level Winnipeg Center
11:39PM 49.2667 -93.2000 289° West 340 391 31,000  Level Winnipeg Center
11:40PM 49.3000 -93.3500 280° West 350 403 31,000  Level Winnipeg Center
11:41PM 49.3167 -93.5000 300° West 350 403 31,000  Level Winnipeg Center
11:42PM 49.3667 -93.6333 289° West 350 403 31,000  Level Winnipeg Center
11:43PM 49.4000 -93.7833 294° West 350 403 31,000  Level Winnipeg Center
11:44PM 49.4333 -93.9000 280° West 350 403 31,000  Level Winnipeg Center
11:45PM 49.4500 -94.0500 291° West 350 403 31,000  Level Winnipeg Center
11:46PM 49.4833 -94.1833 289° West 340 391 31,000  Level Winnipeg Center
11:47PM 49.5167 -94.3333 281° West 340 391 31,000  Level Winnipeg Center
11:48PM 49.5333 -94.4667 280° West 340 391 31,000  Level Winnipeg Center
11:49PM 49.5500 -94.6167 280° West 350 403 31,000  Level Winnipeg Center
11:50PM 49.5667 -94.7667 287° West 350 403 31,000  Level Winnipeg Center
11:51PM 49.6000 -94.9333 280° West 350 403 31,000  Level Winnipeg Center
11:52PM 49.6167 -95.0833 281° West 360 414 31,000  Level Winnipeg Center
11:53PM 49.6333 -95.2167 289° West 360 414 31,000  Level Winnipeg Center
11:54PM 49.6667 -95.3667 281° West 350 403 31,000  Level Winnipeg Center
11:55PM 49.6833 -95.5000 280° West 340 391 31,000  Level Winnipeg Center
11:56PM 49.7000 -95.6500 280° West 330 380 31,000  Level Winnipeg Center
11:57PM 49.7167 -95.8000 281° West 340 391 31,000  Level Winnipeg Center
11:58PM 49.7333 -95.9333 289° West 340 391 31,000 -240 Level Winnipeg Center
11:59PM 49.7667 -96.0833 280° West 340 391 30,600 -540 Descending Winnipeg Center
12:00AM 49.7833 -96.2333 281° West 340 391 30,000 -300 Descending Winnipeg Center
12:01AM 49.8000 -96.3667 281° West 340 391 30,000  Level Winnipeg Center
12:02AM 49.8167 -96.5000 289° West 340 391 30,000  Level Winnipeg Center
12:03AM 49.8500 -96.6500 279° West 340 391 30,000  Level Winnipeg Center
12:04AM 49.8667 -96.8167 283° West 340 391 30,000  Level Winnipeg Center
12:05AM 49.8833 -96.9333 279° West 340 391 30,000  Level Winnipeg Center
12:06AM 49.9000 -97.1000 281° West 340 391 30,000  Level Winnipeg Center
12:07AM 49.9167 -97.2333 280° West 340 391 30,000  Level Winnipeg Center
12:08AM 49.9333 -97.3833 280° West 340 391 30,000  Level Winnipeg Center
12:09AM 49.9500 -97.5333 279° West 340 391 30,000  Level Winnipeg Center
12:10AM 49.9667 -97.7000 283° West 340 391 30,000  Level Winnipeg Center
12:11AM 49.9833 -97.8167 281° West 340 391 30,000  Level Winnipeg Center
12:12AM 50.0000 -97.9500 270° West 340 391 30,000  Level Winnipeg Center
12:13AM 50.0000 -98.1167 270° West 340 391 30,000  Level Winnipeg Center
12:14AM 50.0000 -98.2667 280° West 340 391 30,000  Level Winnipeg Center
12:15AM 50.0167 -98.4167 281° West 340 391 30,000  Level Winnipeg Center
12:16AM 50.0333 -98.5500 279° West 340 391 30,000  Level Winnipeg Center
12:17AM 50.0500 -98.7167 281° West 340 391 30,000  Level Winnipeg Center
12:18AM 50.0667 -98.8500 280° West 340 391 30,000  Level Winnipeg Center
12:19AM 50.0833 -99.0000 281° West 340 391 30,000  Level Winnipeg Center
12:20AM 50.1000 -99.1333 270° West 340 391 30,000  Level Winnipeg Center
12:21AM 50.1000 -99.2833 281° West 330 380 30,000  Level Winnipeg Center
12:22AM 50.1167 -99.4167 279° West 330 380 30,000  Level Winnipeg Center
12:23AM 50.1333 -99.5833 283° West 320 368 30,000  Level Winnipeg Center
12:24AM 50.1500 -99.7000 281° West 330 380 30,000  Level Winnipeg Center
12:25AM 50.1667 -99.8333 261° West 330 380 30,000  Level Winnipeg Center
12:26AM 50.1500 -100.0000 281° West 330 380 30,000  Level Winnipeg Center
12:27AM 50.1667 -100.1333 278° West 330 380 30,000  Level Winnipeg Center
12:38AM 50.3000 -101.7167 275° West 330 380 30,000 -120 Level Winnipeg Center
12:43AM 50.3333 -102.4167 270° West 340 391 28,100 -660 Descending Winnipeg Center
12:44AM 50.3333 -102.5833 270° West 350 403 26,200 -1,920 Descending Winnipeg Center
12:45AM 50.3333 -102.7333 270° West 350 403 24,300 -2,040 Descending Winnipeg Center
12:46AM 50.3333 -102.9000 257° West 350 403 22,200 -2,040 Descending Winnipeg Center
12:47AM 50.3167 -103.0167 270° West 350 403 20,300 -2,040 Descending Winnipeg Center
12:48AM 50.3167 -103.1833 270° West 340 391 18,200 -1,980 Descending Winnipeg Center
12:49AM 50.3167 -103.3333 270° West 340 391 16,400 -2,040 Descending Winnipeg Center
12:50AM 50.3167 -103.4667 259° West 330 380 14,200 -1,860 Descending Winnipeg Center
12:51AM 50.3000 -103.6000 270° West 310 357 12,700 -1,380 Descending Winnipeg Center
12:52AM 50.3000 -103.7333 285° West 280 322 11,500 -1,260 Descending Winnipeg Center
12:53AM 50.3167 -103.8333 259° West 270 311 10,200 -1,260 Descending Winnipeg Center
12:54AM 50.3000 -103.9667 270° West 270 311 9,000 -1,200 Descending Winnipeg Center
12:55AM 50.3000 -104.0667 257° West 260 299 7,800 -1,200 Descending Winnipeg Center
12:56AM 50.2833 -104.1833 270° West 260 299 6,700 -1,140 Descending Winnipeg Center
12:57AM 50.2833 -104.2833 285° West 240 276 5,600 -1,080 Descending Winnipeg Center
12:58AM 50.3000 -104.3833 255° West 230 265 4,600 -900 Descending Winnipeg Center
12:59AM 50.2833 -104.4833 308° West 210 242 3,900 -600 Descending Winnipeg Center
01:00AM 50.3167 -104.5500 327° Northwest 180 207 3,500 -240 Descending Winnipeg Center
01:01AM 50.3500 -104.5833 327° Northwest 170 196 3,500  Level Winnipeg Center